sensor_id;sensor_type;location;lat;lon;timestamp;temperature;humidity
20041;DHT22;10181;48.072;9.884;2023-05-10T00:01:57;12.30;99.90
20041;DHT22;10181;48.072;9.884;2023-05-10T00:04:23;12.40;99.90
20041;DHT22;10181;48.072;9.884;2023-05-10T00:06:53;12.40;99.90
20041;DHT22;10181;48.072;9.884;2023-05-10T00:09:18;12.40;99.90
20041;DHT22;10181;48.072;9.884;2023-05-10T00:11:44;12.40;99.90
20041;DHT22;10181;48.072;9.884;2023-05-10T00:14:10;12.30;99.90
20041;DHT22;10181;48.072;9.884;2023-05-10T00:16:35;12.30;99.90
20041;DHT22;10181;48.072;9.884;2023-05-10T00:19:01;12.30;99.90
20041;DHT22;10181;48.072;9.884;2023-05-10T00:21:26;12.30;99.90
20041;DHT22;10181;48.072;9.884;2023-05-10T00:23:53;12.30;99.90
20041;DHT22;10181;48.072;9.884;2023-05-10T00:26:19;12.30;99.90
20041;DHT22;10181;48.072;9.884;2023-05-10T00:28:45;12.20;99.90
20041;DHT22;10181;48.072;9.884;2023-05-10T00:31:10;12.30;99.90
20041;DHT22;10181;48.072;9.884;2023-05-10T00:33:36;12.20;99.90
20041;DHT22;10181;48.072;9.884;2023-05-10T00:36:02;12.20;99.90
20041;DHT22;10181;48.072;9.884;2023-05-10T00:38:27;12.20;99.90
20041;DHT22;10181;48.072;9.884;2023-05-10T00:40:53;12.20;99.90
20041;DHT22;10181;48.072;9.884;2023-05-10T00:43:18;12.20;99.90
20041;DHT22;10181;48.072;9.884;2023-05-10T00:45:44;12.20;99.90
20041;DHT22;10181;48.072;9.884;2023-05-10T00:48:10;12.20;99.90
20041;DHT22;10181;48.072;9.884;2023-05-10T00:50:36;12.20;99.90
20041;DHT22;10181;48.072;9.884;2023-05-10T00:53:02;12.20;99.90
20041;DHT22;10181;48.072;9.884;2023-05-10T00:55:28;12.20;99.90
20041;DHT22;10181;48.072;9.884;2023-05-10T00:57:54;12.20;99.90
20041;DHT22;10181;48.072;9.884;2023-05-10T01:00:20;12.10;99.90
20041;DHT22;10181;48.072;9.884;2023-05-10T01:02:46;12.10;99.90
20041;DHT22;10181;48.072;9.884;2023-05-10T01:05:12;12.10;99.90
20041;DHT22;10181;48.072;9.884;2023-05-10T01:07:38;12.10;99.90
20041;DHT22;10181;48.072;9.884;2023-05-10T01:10:05;12.10;99.90
20041;DHT22;10181;48.072;9.884;2023-05-10T01:12:31;12.10;99.90
20041;DHT22;10181;48.072;9.884;2023-05-10T01:14:57;12.10;99.90
20041;DHT22;10181;48.072;9.884;2023-05-10T01:17:24;12.10;99.90
20041;DHT22;10181;48.072;9.884;2023-05-10T01:19:50;12.10;99.90
20041;DHT22;10181;48.072;9.884;2023-05-10T01:33:35;12.10;99.90
20041;DHT22;10181;48.072;9.884;2023-05-10T01:38:43;12.10;99.90
20041;DHT22;10181;48.072;9.884;2023-05-10T01:43:57;12.00;99.90
20041;DHT22;10181;48.072;9.884;2023-05-10T01:46:38;12.00;99.90
20041;DHT22;10181;48.072;9.884;2023-05-10T01:49:09;12.00;99.90
20041;DHT22;10181;48.072;9.884;2023-05-10T01:51:45;12.00;99.90
20041;DHT22;10181;48.072;9.884;2023-05-10T01:54:13;12.00;99.90
20041;DHT22;10181;48.072;9.884;2023-05-10T01:56:40;12.00;99.90
20041;DHT22;10181;48.072;9.884;2023-05-10T01:59:11;12.10;99.90
20041;DHT22;10181;48.072;9.884;2023-05-10T02:01:38;12.10;99.90
20041;DHT22;10181;48.072;9.884;2023-05-10T02:04:07;12.00;99.90
20041;DHT22;10181;48.072;9.884;2023-05-10T02:06:33;12.00;99.90
20041;DHT22;10181;48.072;9.884;2023-05-10T02:09:01;11.90;99.90
20041;DHT22;10181;48.072;9.884;2023-05-10T02:11:27;12.00;99.90
20041;DHT22;10181;48.072;9.884;2023-05-10T02:13:54;12.00;99.90
20041;DHT22;10181;48.072;9.884;2023-05-10T02:16:24;12.00;99.90
20041;DHT22;10181;48.072;9.884;2023-05-10T02:18:52;12.00;99.90
20041;DHT22;10181;48.072;9.884;2023-05-10T02:21:20;12.00;99.90
20041;DHT22;10181;48.072;9.884;2023-05-10T02:23:46;12.00;99.90
20041;DHT22;10181;48.072;9.884;2023-05-10T02:26:14;12.00;99.90
20041;DHT22;10181;48.072;9.884;2023-05-10T02:28:41;12.00;99.90
20041;DHT22;10181;48.072;9.884;2023-05-10T02:31:08;12.00;99.90
20041;DHT22;10181;48.072;9.884;2023-05-10T02:33:38;12.00;99.90
20041;DHT22;10181;48.072;9.884;2023-05-10T02:36:07;12.00;99.90
20041;DHT22;10181;48.072;9.884;2023-05-10T02:38:35;11.90;99.90
20041;DHT22;10181;48.072;9.884;2023-05-10T02:41:02;11.90;99.90
20041;DHT22;10181;48.072;9.884;2023-05-10T02:43:30;11.90;99.90
20041;DHT22;10181;48.072;9.884;2023-05-10T02:45:57;11.90;99.90
20041;DHT22;10181;48.072;9.884;2023-05-10T02:48:22;11.90;99.90
20041;DHT22;10181;48.072;9.884;2023-05-10T02:50:50;11.90;99.90
20041;DHT22;10181;48.072;9.884;2023-05-10T02:53:31;11.80;99.90
20041;DHT22;10181;48.072;9.884;2023-05-10T02:56:01;11.80;99.90
20041;DHT22;10181;48.072;9.884;2023-05-10T02:58:29;11.90;99.90
20041;DHT22;10181;48.072;9.884;2023-05-10T03:00:54;11.80;99.90
20041;DHT22;10181;48.072;9.884;2023-05-10T03:03:20;11.80;99.90
20041;DHT22;10181;48.072;9.884;2023-05-10T03:05:46;11.80;99.90
20041;DHT22;10181;48.072;9.884;2023-05-10T03:08:12;11.80;99.90
20041;DHT22;10181;48.072;9.884;2023-05-10T03:13:32;11.70;99.90
20041;DHT22;10181;48.072;9.884;2023-05-10T03:16:16;11.70;99.90
20041;DHT22;10181;48.072;9.884;2023-05-10T03:18:56;11.70;99.90
20041;DHT22;10181;48.072;9.884;2023-05-10T03:21:29;11.70;99.90
20041;DHT22;10181;48.072;9.884;2023-05-10T03:23:59;11.60;99.90
20041;DHT22;10181;48.072;9.884;2023-05-10T03:26:28;11.60;99.90
20041;DHT22;10181;48.072;9.884;2023-05-10T03:28:55;11.70;99.90
20041;DHT22;10181;48.072;9.884;2023-05-10T03:31:22;11.60;99.90
20041;DHT22;10181;48.072;9.884;2023-05-10T03:33:48;11.60;99.90
20041;DHT22;10181;48.072;9.884;2023-05-10T03:36:14;11.60;99.90
20041;DHT22;10181;48.072;9.884;2023-05-10T03:38:40;11.60;99.90
20041;DHT22;10181;48.072;9.884;2023-05-10T03:41:05;11.60;99.90
20041;DHT22;10181;48.072;9.884;2023-05-10T03:43:31;11.60;99.90
20041;DHT22;10181;48.072;9.884;2023-05-10T03:45:57;11.60;99.90
20041;DHT22;10181;48.072;9.884;2023-05-10T03:48:22;11.60;99.90
20041;DHT22;10181;48.072;9.884;2023-05-10T03:50:48;11.60;99.90
20041;DHT22;10181;48.072;9.884;2023-05-10T03:53:15;11.60;99.90
20041;DHT22;10181;48.072;9.884;2023-05-10T03:55:40;11.60;99.90
20041;DHT22;10181;48.072;9.884;2023-05-10T03:58:06;11.50;99.90
20041;DHT22;10181;48.072;9.884;2023-05-10T04:00:32;11.50;99.90
20041;DHT22;10181;48.072;9.884;2023-05-10T04:02:58;11.40;99.90
20041;DHT22;10181;48.072;9.884;2023-05-10T04:05:24;11.40;99.90
20041;DHT22;10181;48.072;9.884;2023-05-10T04:07:49;11.50;99.90
20041;DHT22;10181;48.072;9.884;2023-05-10T04:10:16;11.40;99.90
20041;DHT22;10181;48.072;9.884;2023-05-10T04:12:41;11.40;99.90
20041;DHT22;10181;48.072;9.884;2023-05-10T04:15:08;11.40;99.90
20041;DHT22;10181;48.072;9.884;2023-05-10T04:17:33;11.40;99.90
20041;DHT22;10181;48.072;9.884;2023-05-10T04:19:59;11.30;99.90
20041;DHT22;10181;48.072;9.884;2023-05-10T04:22:25;11.30;99.90
20041;DHT22;10181;48.072;9.884;2023-05-10T04:24:50;11.40;99.90
20041;DHT22;10181;48.072;9.884;2023-05-10T04:27:16;11.30;99.90
20041;DHT22;10181;48.072;9.884;2023-05-10T04:29:41;11.20;99.90
20041;DHT22;10181;48.072;9.884;2023-05-10T04:32:07;11.30;99.90
20041;DHT22;10181;48.072;9.884;2023-05-10T04:34:33;11.30;99.90
20041;DHT22;10181;48.072;9.884;2023-05-10T04:36:59;11.30;99.90
20041;DHT22;10181;48.072;9.884;2023-05-10T04:39:25;11.30;99.90
20041;DHT22;10181;48.072;9.884;2023-05-10T04:41:50;11.30;99.90
20041;DHT22;10181;48.072;9.884;2023-05-10T04:44:16;11.30;99.90
20041;DHT22;10181;48.072;9.884;2023-05-10T04:46:42;11.30;99.90
20041;DHT22;10181;48.072;9.884;2023-05-10T04:49:08;11.40;99.90
20041;DHT22;10181;48.072;9.884;2023-05-10T04:51:33;11.40;99.90
20041;DHT22;10181;48.072;9.884;2023-05-10T04:53:59;11.40;99.90
20041;DHT22;10181;48.072;9.884;2023-05-10T04:56:25;11.50;99.90
20041;DHT22;10181;48.072;9.884;2023-05-10T04:58:50;11.40;99.90
20041;DHT22;10181;48.072;9.884;2023-05-10T05:01:16;11.50;99.90
20041;DHT22;10181;48.072;9.884;2023-05-10T05:03:42;11.50;99.90
20041;DHT22;10181;48.072;9.884;2023-05-10T05:06:07;11.50;99.90
20041;DHT22;10181;48.072;9.884;2023-05-10T05:08:33;11.60;99.90
20041;DHT22;10181;48.072;9.884;2023-05-10T05:10:59;11.60;99.90
20041;DHT22;10181;48.072;9.884;2023-05-10T05:13:24;11.60;99.90
20041;DHT22;10181;48.072;9.884;2023-05-10T05:15:59;11.60;99.90
20041;DHT22;10181;48.072;9.884;2023-05-10T05:18:25;11.70;99.90
20041;DHT22;10181;48.072;9.884;2023-05-10T05:20:51;11.70;99.90
20041;DHT22;10181;48.072;9.884;2023-05-10T05:23:16;11.60;99.90
20041;DHT22;10181;48.072;9.884;2023-05-10T05:25:42;11.60;99.90
20041;DHT22;10181;48.072;9.884;2023-05-10T05:28:08;11.60;99.90
20041;DHT22;10181;48.072;9.884;2023-05-10T05:30:33;11.60;99.90
20041;DHT22;10181;48.072;9.884;2023-05-10T05:32:59;11.60;99.90
20041;DHT22;10181;48.072;9.884;2023-05-10T05:35:25;11.60;99.90
20041;DHT22;10181;48.072;9.884;2023-05-10T05:37:50;11.60;99.90
20041;DHT22;10181;48.072;9.884;2023-05-10T05:40:16;11.60;99.90
20041;DHT22;10181;48.072;9.884;2023-05-10T05:42:41;11.60;99.90
20041;DHT22;10181;48.072;9.884;2023-05-10T05:45:07;11.60;99.90
20041;DHT22;10181;48.072;9.884;2023-05-10T05:47:34;11.70;99.90
20041;DHT22;10181;48.072;9.884;2023-05-10T05:49:59;11.70;99.90
20041;DHT22;10181;48.072;9.884;2023-05-10T05:52:25;11.70;99.90
20041;DHT22;10181;48.072;9.884;2023-05-10T05:54:51;11.80;99.90
20041;DHT22;10181;48.072;9.884;2023-05-10T05:57:16;11.80;99.90
20041;DHT22;10181;48.072;9.884;2023-05-10T05:59:42;11.80;99.90
20041;DHT22;10181;48.072;9.884;2023-05-10T06:02:09;11.80;99.90
20041;DHT22;10181;48.072;9.884;2023-05-10T06:04:35;11.80;99.90
20041;DHT22;10181;48.072;9.884;2023-05-10T06:07:01;11.80;99.90
20041;DHT22;10181;48.072;9.884;2023-05-10T06:09:26;11.90;99.90
20041;DHT22;10181;48.072;9.884;2023-05-10T06:11:52;12.00;99.90
20041;DHT22;10181;48.072;9.884;2023-05-10T06:14:19;12.00;99.90
20041;DHT22;10181;48.072;9.884;2023-05-10T06:16:45;12.00;99.90
20041;DHT22;10181;48.072;9.884;2023-05-10T06:19:11;12.00;99.90
20041;DHT22;10181;48.072;9.884;2023-05-10T06:21:36;12.10;99.90
20041;DHT22;10181;48.072;9.884;2023-05-10T06:24:02;12.20;99.90
20041;DHT22;10181;48.072;9.884;2023-05-10T06:26:28;12.20;99.90
20041;DHT22;10181;48.072;9.884;2023-05-10T06:28:53;12.20;99.90
20041;DHT22;10181;48.072;9.884;2023-05-10T06:31:19;12.20;99.90
20041;DHT22;10181;48.072;9.884;2023-05-10T06:33:45;12.20;99.90
20041;DHT22;10181;48.072;9.884;2023-05-10T06:36:10;12.30;99.90
20041;DHT22;10181;48.072;9.884;2023-05-10T06:38:36;12.40;99.90
20041;DHT22;10181;48.072;9.884;2023-05-10T06:41:02;12.40;99.90
20041;DHT22;10181;48.072;9.884;2023-05-10T06:43:28;12.50;99.90
20041;DHT22;10181;48.072;9.884;2023-05-10T06:45:54;12.50;99.90
20041;DHT22;10181;48.072;9.884;2023-05-10T06:48:19;12.50;99.90
20041;DHT22;10181;48.072;9.884;2023-05-10T06:50:45;12.50;99.90
20041;DHT22;10181;48.072;9.884;2023-05-10T06:53:11;12.60;99.90
20041;DHT22;10181;48.072;9.884;2023-05-10T06:55:37;12.70;99.90
20041;DHT22;10181;48.072;9.884;2023-05-10T06:58:03;12.70;99.90
20041;DHT22;10181;48.072;9.884;2023-05-10T07:00:28;12.70;99.90
20041;DHT22;10181;48.072;9.884;2023-05-10T07:02:54;12.80;99.90
20041;DHT22;10181;48.072;9.884;2023-05-10T07:05:20;12.80;99.90
20041;DHT22;10181;48.072;9.884;2023-05-10T07:07:46;12.90;99.90
20041;DHT22;10181;48.072;9.884;2023-05-10T07:10:11;12.80;99.90
20041;DHT22;10181;48.072;9.884;2023-05-10T07:12:37;12.90;99.90
20041;DHT22;10181;48.072;9.884;2023-05-10T07:15:05;12.90;99.90
20041;DHT22;10181;48.072;9.884;2023-05-10T07:17:31;12.90;99.90
20041;DHT22;10181;48.072;9.884;2023-05-10T07:19:58;13.00;99.90
20041;DHT22;10181;48.072;9.884;2023-05-10T07:22:24;12.90;99.90
20041;DHT22;10181;48.072;9.884;2023-05-10T07:24:50;12.90;99.90
20041;DHT22;10181;48.072;9.884;2023-05-10T07:27:15;13.00;99.90
20041;DHT22;10181;48.072;9.884;2023-05-10T07:29:41;12.90;99.90
20041;DHT22;10181;48.072;9.884;2023-05-10T07:32:06;12.90;99.90
20041;DHT22;10181;48.072;9.884;2023-05-10T07:34:32;13.00;99.90
20041;DHT22;10181;48.072;9.884;2023-05-10T07:36:58;12.90;99.90
20041;DHT22;10181;48.072;9.884;2023-05-10T07:39:25;12.90;99.90
20041;DHT22;10181;48.072;9.884;2023-05-10T07:41:51;12.80;99.90
20041;DHT22;10181;48.072;9.884;2023-05-10T07:44:16;12.80;99.90
20041;DHT22;10181;48.072;9.884;2023-05-10T07:46:44;12.80;99.90
20041;DHT22;10181;48.072;9.884;2023-05-10T07:49:10;12.80;99.90
20041;DHT22;10181;48.072;9.884;2023-05-10T07:51:35;12.80;99.90
20041;DHT22;10181;48.072;9.884;2023-05-10T07:54:01;12.90;99.90
20041;DHT22;10181;48.072;9.884;2023-05-10T07:56:29;13.00;99.90
20041;DHT22;10181;48.072;9.884;2023-05-10T07:58:56;13.00;99.90
20041;DHT22;10181;48.072;9.884;2023-05-10T08:01:22;13.00;99.90
20041;DHT22;10181;48.072;9.884;2023-05-10T08:03:48;13.00;99.90
20041;DHT22;10181;48.072;9.884;2023-05-10T08:06:17;13.00;99.90
20041;DHT22;10181;48.072;9.884;2023-05-10T08:08:44;13.00;99.90
20041;DHT22;10181;48.072;9.884;2023-05-10T08:11:17;13.10;99.90
20041;DHT22;10181;48.072;9.884;2023-05-10T08:13:43;13.10;99.90
20041;DHT22;10181;48.072;9.884;2023-05-10T08:16:09;13.00;99.90
20041;DHT22;10181;48.072;9.884;2023-05-10T08:18:34;13.10;99.90
20041;DHT22;10181;48.072;9.884;2023-05-10T08:21:00;13.10;99.90
20041;DHT22;10181;48.072;9.884;2023-05-10T08:23:26;13.10;99.90
20041;DHT22;10181;48.072;9.884;2023-05-10T08:25:51;13.00;99.90
20041;DHT22;10181;48.072;9.884;2023-05-10T08:28:17;13.10;99.90
20041;DHT22;10181;48.072;9.884;2023-05-10T08:30:42;13.10;99.90
20041;DHT22;10181;48.072;9.884;2023-05-10T08:33:08;13.00;99.90
20041;DHT22;10181;48.072;9.884;2023-05-10T08:35:33;13.10;99.90
20041;DHT22;10181;48.072;9.884;2023-05-10T08:38:00;13.20;99.90
20041;DHT22;10181;48.072;9.884;2023-05-10T08:40:26;13.30;99.90
20041;DHT22;10181;48.072;9.884;2023-05-10T08:43:07;13.30;99.90
20041;DHT22;10181;48.072;9.884;2023-05-10T08:45:37;13.40;99.90
20041;DHT22;10181;48.072;9.884;2023-05-10T08:48:05;13.50;99.90
20041;DHT22;10181;48.072;9.884;2023-05-10T08:50:31;13.40;99.90
20041;DHT22;10181;48.072;9.884;2023-05-10T08:53:00;13.50;99.90
20041;DHT22;10181;48.072;9.884;2023-05-10T08:55:26;13.40;99.90
20041;DHT22;10181;48.072;9.884;2023-05-10T08:57:52;13.50;99.90
20041;DHT22;10181;48.072;9.884;2023-05-10T09:00:18;13.40;99.90
20041;DHT22;10181;48.072;9.884;2023-05-10T09:02:45;13.40;99.90
20041;DHT22;10181;48.072;9.884;2023-05-10T09:05:13;13.50;99.90
20041;DHT22;10181;48.072;9.884;2023-05-10T09:07:41;13.50;99.90
20041;DHT22;10181;48.072;9.884;2023-05-10T09:10:08;13.50;99.90
20041;DHT22;10181;48.072;9.884;2023-05-10T09:12:35;13.60;99.90
20041;DHT22;10181;48.072;9.884;2023-05-10T09:15:01;13.60;99.90
20041;DHT22;10181;48.072;9.884;2023-05-10T09:17:27;13.70;99.90
20041;DHT22;10181;48.072;9.884;2023-05-10T09:20:01;13.70;99.90
20041;DHT22;10181;48.072;9.884;2023-05-10T09:22:28;13.60;99.90
20041;DHT22;10181;48.072;9.884;2023-05-10T09:25:15;13.70;99.90
20041;DHT22;10181;48.072;9.884;2023-05-10T09:27:45;13.80;99.90
20041;DHT22;10181;48.072;9.884;2023-05-10T09:30:15;13.70;99.90
20041;DHT22;10181;48.072;9.884;2023-05-10T09:32:43;13.60;99.90
20041;DHT22;10181;48.072;9.884;2023-05-10T09:35:17;13.60;99.90
20041;DHT22;10181;48.072;9.884;2023-05-10T09:37:45;13.60;99.90
20041;DHT22;10181;48.072;9.884;2023-05-10T09:40:18;13.60;99.90
20041;DHT22;10181;48.072;9.884;2023-05-10T09:45:26;13.40;99.90
20041;DHT22;10181;48.072;9.884;2023-05-10T09:47:52;13.50;99.90
20041;DHT22;10181;48.072;9.884;2023-05-10T09:50:19;13.50;99.90
20041;DHT22;10181;48.072;9.884;2023-05-10T09:52:59;13.60;99.90
20041;DHT22;10181;48.072;9.884;2023-05-10T09:55:44;13.50;99.90
20041;DHT22;10181;48.072;9.884;2023-05-10T09:58:14;13.40;99.90
20041;DHT22;10181;48.072;9.884;2023-05-10T10:00:44;13.40;99.90
20041;DHT22;10181;48.072;9.884;2023-05-10T10:03:15;13.40;99.90
20041;DHT22;10181;48.072;9.884;2023-05-10T10:05:42;13.50;99.90
20041;DHT22;10181;48.072;9.884;2023-05-10T10:08:08;13.50;99.90
20041;DHT22;10181;48.072;9.884;2023-05-10T10:10:34;13.60;99.90
20041;DHT22;10181;48.072;9.884;2023-05-10T10:13:00;13.50;99.90
20041;DHT22;10181;48.072;9.884;2023-05-10T10:15:26;13.50;99.90
20041;DHT22;10181;48.072;9.884;2023-05-10T10:17:53;13.40;99.90
20041;DHT22;10181;48.072;9.884;2023-05-10T10:20:21;13.30;99.90
20041;DHT22;10181;48.072;9.884;2023-05-10T10:22:47;13.20;99.90
20041;DHT22;10181;48.072;9.884;2023-05-10T10:25:15;13.10;99.90
20041;DHT22;10181;48.072;9.884;2023-05-10T10:27:59;13.10;99.90
20041;DHT22;10181;48.072;9.884;2023-05-10T10:30:47;12.70;99.90
20041;DHT22;10181;48.072;9.884;2023-05-10T10:33:29;12.30;99.90
20041;DHT22;10181;48.072;9.884;2023-05-10T10:35:59;12.00;99.90
20041;DHT22;10181;48.072;9.884;2023-05-10T10:38:25;11.70;99.90
20041;DHT22;10181;48.072;9.884;2023-05-10T10:41:09;11.50;99.90
20041;DHT22;10181;48.072;9.884;2023-05-10T10:43:35;11.40;99.90
20041;DHT22;10181;48.072;9.884;2023-05-10T10:46:14;11.30;99.90
20041;DHT22;10181;48.072;9.884;2023-05-10T10:49:09;11.20;99.90
20041;DHT22;10181;48.072;9.884;2023-05-10T10:51:38;11.10;99.90
20041;DHT22;10181;48.072;9.884;2023-05-10T10:54:11;11.00;99.90
20041;DHT22;10181;48.072;9.884;2023-05-10T10:56:36;11.00;99.90
20041;DHT22;10181;48.072;9.884;2023-05-10T10:59:02;11.00;99.90
20041;DHT22;10181;48.072;9.884;2023-05-10T11:01:33;11.00;99.90
20041;DHT22;10181;48.072;9.884;2023-05-10T11:06:33;11.10;99.90
20041;DHT22;10181;48.072;9.884;2023-05-10T11:09:09;11.20;99.90
20041;DHT22;10181;48.072;9.884;2023-05-10T11:11:35;11.30;99.90
20041;DHT22;10181;48.072;9.884;2023-05-10T11:14:06;11.20;99.90
20041;DHT22;10181;48.072;9.884;2023-05-10T11:16:43;11.30;99.90
20041;DHT22;10181;48.072;9.884;2023-05-10T11:19:13;11.30;99.90
20041;DHT22;10181;48.072;9.884;2023-05-10T11:24:15;11.30;99.90
20041;DHT22;10181;48.072;9.884;2023-05-10T11:26:41;11.20;99.90
20041;DHT22;10181;48.072;9.884;2023-05-10T11:29:07;11.20;99.90
20041;DHT22;10181;48.072;9.884;2023-05-10T11:31:34;11.30;99.90
20041;DHT22;10181;48.072;9.884;2023-05-10T11:34:00;11.40;99.90
20041;DHT22;10181;48.072;9.884;2023-05-10T11:36:35;11.30;99.90
20041;DHT22;10181;48.072;9.884;2023-05-10T11:39:02;11.40;99.90
20041;DHT22;10181;48.072;9.884;2023-05-10T11:41:29;11.40;99.90
20041;DHT22;10181;48.072;9.884;2023-05-10T11:43:56;11.40;99.90
20041;DHT22;10181;48.072;9.884;2023-05-10T11:46:24;11.40;99.90
20041;DHT22;10181;48.072;9.884;2023-05-10T11:48:51;11.50;99.90
20041;DHT22;10181;48.072;9.884;2023-05-10T11:51:21;11.60;99.90
20041;DHT22;10181;48.072;9.884;2023-05-10T11:53:49;11.60;99.90
20041;DHT22;10181;48.072;9.884;2023-05-10T11:56:15;11.70;99.90
20041;DHT22;10181;48.072;9.884;2023-05-10T11:58:41;11.70;99.90
20041;DHT22;10181;48.072;9.884;2023-05-10T12:01:07;11.80;99.90
20041;DHT22;10181;48.072;9.884;2023-05-10T12:03:34;11.80;99.90
20041;DHT22;10181;48.072;9.884;2023-05-10T12:06:01;11.80;99.90
20041;DHT22;10181;48.072;9.884;2023-05-10T12:08:28;11.80;99.90
20041;DHT22;10181;48.072;9.884;2023-05-10T12:11:05;11.80;99.90
20041;DHT22;10181;48.072;9.884;2023-05-10T12:13:31;11.70;99.90
20041;DHT22;10181;48.072;9.884;2023-05-10T12:16:00;11.70;99.90
20041;DHT22;10181;48.072;9.884;2023-05-10T12:18:40;11.70;99.90
20041;DHT22;10181;48.072;9.884;2023-05-10T12:21:06;11.70;99.90
20041;DHT22;10181;48.072;9.884;2023-05-10T12:23:32;11.70;99.90
20041;DHT22;10181;48.072;9.884;2023-05-10T12:26:04;11.70;99.90
20041;DHT22;10181;48.072;9.884;2023-05-10T12:28:31;11.60;99.90
20041;DHT22;10181;48.072;9.884;2023-05-10T12:30:58;11.60;99.90
20041;DHT22;10181;48.072;9.884;2023-05-10T12:33:24;11.60;99.90
20041;DHT22;10181;48.072;9.884;2023-05-10T12:35:51;11.60;99.90
20041;DHT22;10181;48.072;9.884;2023-05-10T12:41:08;11.50;99.90
20041;DHT22;10181;48.072;9.884;2023-05-10T12:43:35;11.50;99.90
20041;DHT22;10181;48.072;9.884;2023-05-10T12:46:11;11.50;99.90
20041;DHT22;10181;48.072;9.884;2023-05-10T12:48:38;11.40;99.90
20041;DHT22;10181;48.072;9.884;2023-05-10T12:51:04;11.30;99.90
20041;DHT22;10181;48.072;9.884;2023-05-10T12:53:30;11.30;99.90
20041;DHT22;10181;48.072;9.884;2023-05-10T12:55:56;11.30;99.90
20041;DHT22;10181;48.072;9.884;2023-05-10T12:58:22;11.50;99.90
20041;DHT22;10181;48.072;9.884;2023-05-10T13:00:48;11.40;99.90
20041;DHT22;10181;48.072;9.884;2023-05-10T13:03:14;11.40;99.90
20041;DHT22;10181;48.072;9.884;2023-05-10T13:05:40;11.50;99.90
20041;DHT22;10181;48.072;9.884;2023-05-10T13:08:06;11.60;99.90
20041;DHT22;10181;48.072;9.884;2023-05-10T13:10:32;11.60;99.90
20041;DHT22;10181;48.072;9.884;2023-05-10T13:12:58;11.70;99.90
20041;DHT22;10181;48.072;9.884;2023-05-10T13:15:24;11.70;99.90
20041;DHT22;10181;48.072;9.884;2023-05-10T13:17:50;11.80;99.90
20041;DHT22;10181;48.072;9.884;2023-05-10T13:20:16;12.00;99.90
20041;DHT22;10181;48.072;9.884;2023-05-10T13:22:43;12.00;99.90
20041;DHT22;10181;48.072;9.884;2023-05-10T13:25:10;12.20;99.90
20041;DHT22;10181;48.072;9.884;2023-05-10T13:27:36;12.20;99.90
20041;DHT22;10181;48.072;9.884;2023-05-10T13:30:02;12.20;99.90
20041;DHT22;10181;48.072;9.884;2023-05-10T13:32:28;12.20;99.90
20041;DHT22;10181;48.072;9.884;2023-05-10T13:34:55;12.10;99.90
20041;DHT22;10181;48.072;9.884;2023-05-10T13:37:20;12.20;99.90
20041;DHT22;10181;48.072;9.884;2023-05-10T13:39:46;12.20;99.90
20041;DHT22;10181;48.072;9.884;2023-05-10T13:42:12;12.20;99.90
20041;DHT22;10181;48.072;9.884;2023-05-10T13:44:38;12.20;99.90
20041;DHT22;10181;48.072;9.884;2023-05-10T13:47:04;12.10;99.90
20041;DHT22;10181;48.072;9.884;2023-05-10T13:49:30;12.20;99.90
20041;DHT22;10181;48.072;9.884;2023-05-10T13:51:55;12.20;99.90
20041;DHT22;10181;48.072;9.884;2023-05-10T13:54:21;12.20;99.90
20041;DHT22;10181;48.072;9.884;2023-05-10T13:56:47;12.20;99.90
20041;DHT22;10181;48.072;9.884;2023-05-10T13:59:14;12.20;99.90
20041;DHT22;10181;48.072;9.884;2023-05-10T14:01:43;12.10;99.90
20041;DHT22;10181;48.072;9.884;2023-05-10T14:04:09;12.10;99.90
20041;DHT22;10181;48.072;9.884;2023-05-10T14:06:36;12.10;99.90
20041;DHT22;10181;48.072;9.884;2023-05-10T14:09:02;12.10;99.90
20041;DHT22;10181;48.072;9.884;2023-05-10T14:11:28;12.10;99.90
20041;DHT22;10181;48.072;9.884;2023-05-10T14:13:53;12.10;99.90
20041;DHT22;10181;48.072;9.884;2023-05-10T14:16:19;12.10;99.90
20041;DHT22;10181;48.072;9.884;2023-05-10T14:18:45;12.10;99.90
20041;DHT22;10181;48.072;9.884;2023-05-10T14:21:11;12.10;99.90
20041;DHT22;10181;48.072;9.884;2023-05-10T14:23:37;12.00;99.90
20041;DHT22;10181;48.072;9.884;2023-05-10T14:26:03;11.90;99.90
20041;DHT22;10181;48.072;9.884;2023-05-10T14:28:29;11.80;99.90
20041;DHT22;10181;48.072;9.884;2023-05-10T14:30:54;11.70;99.90
20041;DHT22;10181;48.072;9.884;2023-05-10T14:33:20;11.60;99.90
20041;DHT22;10181;48.072;9.884;2023-05-10T14:35:46;11.50;99.90
20041;DHT22;10181;48.072;9.884;2023-05-10T14:38:12;11.50;99.90
20041;DHT22;10181;48.072;9.884;2023-05-10T14:40:38;11.30;99.90
20041;DHT22;10181;48.072;9.884;2023-05-10T14:43:03;11.20;99.90
20041;DHT22;10181;48.072;9.884;2023-05-10T14:45:30;11.20;99.90
20041;DHT22;10181;48.072;9.884;2023-05-10T14:47:56;11.20;99.90
20041;DHT22;10181;48.072;9.884;2023-05-10T14:50:22;11.20;99.90
20041;DHT22;10181;48.072;9.884;2023-05-10T14:52:48;11.10;99.90
20041;DHT22;10181;48.072;9.884;2023-05-10T14:55:14;11.20;99.90
20041;DHT22;10181;48.072;9.884;2023-05-10T14:57:40;11.10;99.90
20041;DHT22;10181;48.072;9.884;2023-05-10T15:00:06;11.00;99.90
20041;DHT22;10181;48.072;9.884;2023-05-10T15:02:32;11.00;99.90
20041;DHT22;10181;48.072;9.884;2023-05-10T15:04:58;11.10;99.90
20041;DHT22;10181;48.072;9.884;2023-05-10T15:07:23;11.20;99.90
20041;DHT22;10181;48.072;9.884;2023-05-10T15:09:50;11.20;99.90
20041;DHT22;10181;48.072;9.884;2023-05-10T15:12:17;11.20;99.90
20041;DHT22;10181;48.072;9.884;2023-05-10T15:14:43;11.30;99.90
20041;DHT22;10181;48.072;9.884;2023-05-10T15:17:08;11.30;99.90
20041;DHT22;10181;48.072;9.884;2023-05-10T15:19:34;11.30;99.90
20041;DHT22;10181;48.072;9.884;2023-05-10T15:21:59;11.40;99.90
20041;DHT22;10181;48.072;9.884;2023-05-10T15:24:25;11.40;99.90
20041;DHT22;10181;48.072;9.884;2023-05-10T15:26:51;11.40;99.90
20041;DHT22;10181;48.072;9.884;2023-05-10T15:29:16;11.50;99.90
20041;DHT22;10181;48.072;9.884;2023-05-10T15:31:49;11.40;99.90
20041;DHT22;10181;48.072;9.884;2023-05-10T15:34:15;11.40;99.90
20041;DHT22;10181;48.072;9.884;2023-05-10T15:36:42;11.30;99.90
20041;DHT22;10181;48.072;9.884;2023-05-10T15:39:07;11.40;99.90
20041;DHT22;10181;48.072;9.884;2023-05-10T15:41:34;11.30;99.90
20041;DHT22;10181;48.072;9.884;2023-05-10T15:44:00;11.30;99.90
20041;DHT22;10181;48.072;9.884;2023-05-10T15:46:27;11.30;99.90
20041;DHT22;10181;48.072;9.884;2023-05-10T15:48:52;11.40;99.90
20041;DHT22;10181;48.072;9.884;2023-05-10T15:51:18;11.40;99.90
20041;DHT22;10181;48.072;9.884;2023-05-10T15:53:44;11.40;99.90
20041;DHT22;10181;48.072;9.884;2023-05-10T15:56:10;11.40;99.90
20041;DHT22;10181;48.072;9.884;2023-05-10T15:58:37;11.40;99.90
20041;DHT22;10181;48.072;9.884;2023-05-10T16:01:04;11.40;99.90